الصفحة الرئيسية
METAR-TAF:

METAR-TAF

مطار :

مطار أبروتسو الدولي

بسكارا, إيطاليا

دائرة عرض: 42-26N, خط طول: 014-12E, ارتفاع: 10 متر

مراقبة الطقس الحالي

تاريخ ووقت الإصدار 20 دقيقة قبل الساعة 09:50UTC
ريح 3 عقدة من الشرق, الاتجاه يتراوح بين الشمال و الجنوب/الجنوب الشرقي
درجة الحرارة 19°درجة مئوية
الرطوبة 52%
ضغط 1026 hPa
الرؤية 10 كم أو أكثر

METAR: LIBP 220950Z AUTO 08003KT 350V150 9999 NCD 19/09 Q1026

زمن: 12:10 (10:10 UTC)

توقعات

تاريخ ووقت الإصدار 5ساعات و 10 دقيقة قبل الساعة 05:00UTC
التوقعات صالحة من22 الساعة 06 UTC إلى 23 الساعة 06 UTC
ريح 5 عقدةمن اتجاهات متغيرة
الرؤية 10 كم أو أكثر
غيوم قليلة على ارتفاع 3000 قدم
مؤقت
من 22 الساعة 12 UTC إلى 22 الساعة 16 UTC
ريح 10 عقدة من الشرق/الشمال الشرقي

TAF: LIBP 220500Z 2206/2306 VRB05KT 9999 FEW030 TEMPO 2212/2216 06010KT

أرصاد الطقس والتوقعات من أكثر من 4000 مطار (تقارير الطقس للمطار METAR والتنبؤ بالطقس بالمطارTAF).

المحطات المتاحة هي النقط الصفراء والحمراء على الخريطة.

حرك المؤشر فوق النقطة لمعرفة اسم المحطة.

ثم انقر لمعرفة أرصاد وتوقعات الطقس.

لتغيير الخارطة: اضغط على الأزرار الخضراء مع رمز الصليب الأسود للتكبير. على الزر الأخضر مع شرطة للتصغير، أو على الأسهم الخضراء للخرائط المجاورة.


METAR-TAF: